sensor_id;sensor_type;location;lat;lon;timestamp;P1;durP1;ratioP1;P2;durP2;ratioP2
25127;SDS011;13107;51.304;6.866;2022-09-24T00:00:08;7.22;;;3.60;;
25127;SDS011;13107;51.304;6.866;2022-09-24T00:04:11;7.70;;;4.15;;
25127;SDS011;13107;51.304;6.866;2022-09-24T00:08:14;6.10;;;3.83;;
25127;SDS011;13107;51.304;6.866;2022-09-24T00:12:17;7.05;;;3.62;;
25127;SDS011;13107;51.304;6.866;2022-09-24T00:16:19;7.20;;;3.35;;
25127;SDS011;13107;51.304;6.866;2022-09-24T00:20:23;9.20;;;4.15;;
25127;SDS011;13107;51.304;6.866;2022-09-24T00:24:24;10.38;;;4.15;;
25127;SDS011;13107;51.304;6.866;2022-09-24T00:28:47;7.20;;;3.67;;
25127;SDS011;13107;51.304;6.866;2022-09-24T00:32:50;8.05;;;3.90;;
25127;SDS011;13107;51.304;6.866;2022-09-24T00:36:51;8.70;;;3.78;;
25127;SDS011;13107;51.304;6.866;2022-09-24T00:40:53;7.60;;;3.80;;
25127;SDS011;13107;51.304;6.866;2022-09-24T00:44:55;8.63;;;4.15;;
25127;SDS011;13107;51.304;6.866;2022-09-24T00:49:00;11.12;;;3.85;;
25127;SDS011;13107;51.304;6.866;2022-09-24T00:53:07;8.32;;;4.03;;
25127;SDS011;13107;51.304;6.866;2022-09-24T00:57:21;8.63;;;4.72;;
25127;SDS011;13107;51.304;6.866;2022-09-24T01:01:24;7.45;;;4.03;;
25127;SDS011;13107;51.304;6.866;2022-09-24T01:05:26;6.15;;;4.07;;
25127;SDS011;13107;51.304;6.866;2022-09-24T01:09:27;5.82;;;4.07;;
25127;SDS011;13107;51.304;6.866;2022-09-24T01:17:53;6.87;;;4.25;;
25127;SDS011;13107;51.304;6.866;2022-09-24T01:21:57;7.07;;;4.22;;
25127;SDS011;13107;51.304;6.866;2022-09-24T01:30:37;5.50;;;3.72;;
25127;SDS011;13107;51.304;6.866;2022-09-24T01:34:43;8.68;;;4.57;;
25127;SDS011;13107;51.304;6.866;2022-09-24T01:38:52;8.80;;;4.87;;
25127;SDS011;13107;51.304;6.866;2022-09-24T01:42:56;10.48;;;4.80;;
25127;SDS011;13107;51.304;6.866;2022-09-24T01:46:59;8.63;;;4.55;;
25127;SDS011;13107;51.304;6.866;2022-09-24T01:51:09;7.05;;;4.55;;
25127;SDS011;13107;51.304;6.866;2022-09-24T01:55:25;8.65;;;5.07;;
25127;SDS011;13107;51.304;6.866;2022-09-24T01:59:40;7.78;;;5.10;;
25127;SDS011;13107;51.304;6.866;2022-09-24T02:03:50;11.38;;;4.68;;
25127;SDS011;13107;51.304;6.866;2022-09-24T02:08:00;9.73;;;4.72;;
25127;SDS011;13107;51.304;6.866;2022-09-24T02:12:10;9.68;;;5.03;;
25127;SDS011;13107;51.304;6.866;2022-09-24T02:16:32;8.18;;;5.05;;
25127;SDS011;13107;51.304;6.866;2022-09-24T02:20:37;9.73;;;5.53;;
25127;SDS011;13107;51.304;6.866;2022-09-24T02:24:46;8.57;;;5.72;;
25127;SDS011;13107;51.304;6.866;2022-09-24T02:28:50;12.00;;;4.90;;
25127;SDS011;13107;51.304;6.866;2022-09-24T02:32:53;8.18;;;5.05;;
25127;SDS011;13107;51.304;6.866;2022-09-24T02:37:03;15.00;;;6.12;;
25127;SDS011;13107;51.304;6.866;2022-09-24T02:41:06;8.95;;;5.20;;
25127;SDS011;13107;51.304;6.866;2022-09-24T02:45:09;10.52;;;7.43;;
25127;SDS011;13107;51.304;6.866;2022-09-24T02:49:12;9.65;;;6.82;;
25127;SDS011;13107;51.304;6.866;2022-09-24T02:53:14;9.25;;;6.05;;
25127;SDS011;13107;51.304;6.866;2022-09-24T02:57:16;7.45;;;5.68;;
25127;SDS011;13107;51.304;6.866;2022-09-24T03:01:18;8.13;;;6.20;;
25127;SDS011;13107;51.304;6.866;2022-09-24T03:05:20;12.00;;;7.32;;
25127;SDS011;13107;51.304;6.866;2022-09-24T03:09:22;12.10;;;6.20;;
25127;SDS011;13107;51.304;6.866;2022-09-24T03:13:23;9.52;;;6.82;;
25127;SDS011;13107;51.304;6.866;2022-09-24T03:17:25;8.40;;;6.80;;
25127;SDS011;13107;51.304;6.866;2022-09-24T03:21:28;10.80;;;6.70;;
25127;SDS011;13107;51.304;6.866;2022-09-24T03:25:30;11.00;;;7.80;;
25127;SDS011;13107;51.304;6.866;2022-09-24T03:29:32;10.85;;;7.55;;
25127;SDS011;13107;51.304;6.866;2022-09-24T03:33:52;12.13;;;7.60;;
25127;SDS011;13107;51.304;6.866;2022-09-24T03:37:54;10.48;;;7.00;;
25127;SDS011;13107;51.304;6.866;2022-09-24T03:41:56;8.68;;;6.15;;
25127;SDS011;13107;51.304;6.866;2022-09-24T03:45:57;11.73;;;6.30;;
25127;SDS011;13107;51.304;6.866;2022-09-24T03:49:59;9.95;;;6.60;;
25127;SDS011;13107;51.304;6.866;2022-09-24T03:54:02;10.63;;;6.57;;
25127;SDS011;13107;51.304;6.866;2022-09-24T03:58:04;11.88;;;7.47;;
25127;SDS011;13107;51.304;6.866;2022-09-24T04:02:05;11.55;;;6.60;;
25127;SDS011;13107;51.304;6.866;2022-09-24T04:06:07;10.63;;;7.43;;
25127;SDS011;13107;51.304;6.866;2022-09-24T04:10:09;11.55;;;6.57;;
25127;SDS011;13107;51.304;6.866;2022-09-24T04:14:11;8.48;;;6.50;;
25127;SDS011;13107;51.304;6.866;2022-09-24T04:18:13;12.60;;;6.57;;
25127;SDS011;13107;51.304;6.866;2022-09-24T04:22:15;13.10;;;7.10;;
25127;SDS011;13107;51.304;6.866;2022-09-24T04:26:17;11.18;;;7.37;;
25127;SDS011;13107;51.304;6.866;2022-09-24T04:30:18;10.80;;;7.47;;
25127;SDS011;13107;51.304;6.866;2022-09-24T04:34:20;12.63;;;8.00;;
25127;SDS011;13107;51.304;6.866;2022-09-24T04:38:22;8.93;;;7.78;;
25127;SDS011;13107;51.304;6.866;2022-09-24T04:42:24;11.68;;;7.75;;
25127;SDS011;13107;51.304;6.866;2022-09-24T04:46:25;11.18;;;8.13;;
25127;SDS011;13107;51.304;6.866;2022-09-24T04:50:28;12.65;;;8.20;;
25127;SDS011;13107;51.304;6.866;2022-09-24T04:54:33;11.82;;;6.87;;
25127;SDS011;13107;51.304;6.866;2022-09-24T04:58:34;11.63;;;7.47;;
25127;SDS011;13107;51.304;6.866;2022-09-24T05:02:36;12.05;;;8.50;;
25127;SDS011;13107;51.304;6.866;2022-09-24T05:06:38;12.10;;;7.68;;
25127;SDS011;13107;51.304;6.866;2022-09-24T05:10:40;14.73;;;8.75;;
25127;SDS011;13107;51.304;6.866;2022-09-24T05:14:41;18.70;;;9.88;;
25127;SDS011;13107;51.304;6.866;2022-09-24T05:18:43;17.65;;;11.57;;
25127;SDS011;13107;51.304;6.866;2022-09-24T05:22:45;19.30;;;11.70;;
25127;SDS011;13107;51.304;6.866;2022-09-24T05:26:49;18.00;;;11.90;;
25127;SDS011;13107;51.304;6.866;2022-09-24T05:31:10;18.80;;;11.90;;
25127;SDS011;13107;51.304;6.866;2022-09-24T05:35:11;15.40;;;12.02;;
25127;SDS011;13107;51.304;6.866;2022-09-24T05:39:13;16.10;;;11.95;;
25127;SDS011;13107;51.304;6.866;2022-09-24T05:43:16;16.87;;;11.00;;
25127;SDS011;13107;51.304;6.866;2022-09-24T05:47:19;13.10;;;10.52;;
25127;SDS011;13107;51.304;6.866;2022-09-24T05:51:21;13.57;;;9.68;;
25127;SDS011;13107;51.304;6.866;2022-09-24T05:55:22;15.55;;;10.38;;
25127;SDS011;13107;51.304;6.866;2022-09-24T05:59:30;12.90;;;9.50;;
25127;SDS011;13107;51.304;6.866;2022-09-24T06:03:32;12.90;;;10.02;;
25127;SDS011;13107;51.304;6.866;2022-09-24T06:07:34;15.98;;;10.32;;
25127;SDS011;13107;51.304;6.866;2022-09-24T06:11:35;14.85;;;10.70;;
25127;SDS011;13107;51.304;6.866;2022-09-24T06:15:41;13.62;;;10.55;;
25127;SDS011;13107;51.304;6.866;2022-09-24T06:19:43;14.57;;;10.25;;
25127;SDS011;13107;51.304;6.866;2022-09-24T06:23:44;13.57;;;10.38;;
25127;SDS011;13107;51.304;6.866;2022-09-24T06:27:51;15.05;;;10.43;;
25127;SDS011;13107;51.304;6.866;2022-09-24T06:32:03;15.17;;;10.60;;
25127;SDS011;13107;51.304;6.866;2022-09-24T06:36:05;12.37;;;9.80;;
25127;SDS011;13107;51.304;6.866;2022-09-24T06:40:07;13.00;;;10.00;;
25127;SDS011;13107;51.304;6.866;2022-09-24T06:44:09;16.45;;;10.15;;
25127;SDS011;13107;51.304;6.866;2022-09-24T06:48:11;12.30;;;10.32;;
25127;SDS011;13107;51.304;6.866;2022-09-24T06:52:14;14.57;;;9.95;;
25127;SDS011;13107;51.304;6.866;2022-09-24T06:56:16;11.63;;;10.38;;
25127;SDS011;13107;51.304;6.866;2022-09-24T07:00:18;15.57;;;10.93;;
25127;SDS011;13107;51.304;6.866;2022-09-24T07:04:20;13.98;;;10.35;;
25127;SDS011;13107;51.304;6.866;2022-09-24T07:08:21;16.92;;;11.02;;
25127;SDS011;13107;51.304;6.866;2022-09-24T07:12:23;14.73;;;10.57;;
25127;SDS011;13107;51.304;6.866;2022-09-24T07:16:25;13.32;;;10.50;;
25127;SDS011;13107;51.304;6.866;2022-09-24T07:20:27;15.20;;;10.23;;
25127;SDS011;13107;51.304;6.866;2022-09-24T07:24:28;11.98;;;10.48;;
25127;SDS011;13107;51.304;6.866;2022-09-24T07:28:30;14.45;;;10.32;;
25127;SDS011;13107;51.304;6.866;2022-09-24T07:32:32;15.77;;;11.55;;
25127;SDS011;13107;51.304;6.866;2022-09-24T07:36:33;18.37;;;10.82;;
25127;SDS011;13107;51.304;6.866;2022-09-24T07:40:35;13.35;;;10.20;;
25127;SDS011;13107;51.304;6.866;2022-09-24T07:44:37;14.15;;;10.63;;
25127;SDS011;13107;51.304;6.866;2022-09-24T07:48:39;12.70;;;10.90;;
25127;SDS011;13107;51.304;6.866;2022-09-24T07:52:40;14.45;;;11.85;;
25127;SDS011;13107;51.304;6.866;2022-09-24T07:56:42;15.82;;;11.10;;
25127;SDS011;13107;51.304;6.866;2022-09-24T08:00:43;15.73;;;11.35;;
25127;SDS011;13107;51.304;6.866;2022-09-24T08:04:45;15.70;;;11.75;;
25127;SDS011;13107;51.304;6.866;2022-09-24T08:08:48;13.57;;;11.70;;
25127;SDS011;13107;51.304;6.866;2022-09-24T08:12:51;16.75;;;12.18;;
25127;SDS011;13107;51.304;6.866;2022-09-24T08:16:52;14.10;;;10.65;;
25127;SDS011;13107;51.304;6.866;2022-09-24T08:20:54;15.57;;;12.23;;
25127;SDS011;13107;51.304;6.866;2022-09-24T08:24:56;16.98;;;12.25;;
25127;SDS011;13107;51.304;6.866;2022-09-24T08:28:58;15.80;;;11.80;;
25127;SDS011;13107;51.304;6.866;2022-09-24T08:32:59;16.08;;;11.70;;
25127;SDS011;13107;51.304;6.866;2022-09-24T08:37:01;16.27;;;11.88;;
25127;SDS011;13107;51.304;6.866;2022-09-24T08:41:08;17.75;;;13.60;;
25127;SDS011;13107;51.304;6.866;2022-09-24T08:45:21;13.98;;;12.20;;
25127;SDS011;13107;51.304;6.866;2022-09-24T08:49:44;17.62;;;12.05;;
25127;SDS011;13107;51.304;6.866;2022-09-24T08:53:52;21.65;;;11.77;;
25127;SDS011;13107;51.304;6.866;2022-09-24T09:06:45;16.23;;;12.73;;
25127;SDS011;13107;51.304;6.866;2022-09-24T09:11:02;13.20;;;11.68;;
25127;SDS011;13107;51.304;6.866;2022-09-24T09:19:15;15.48;;;11.45;;
25127;SDS011;13107;51.304;6.866;2022-09-24T09:23:27;13.00;;;10.88;;
25127;SDS011;13107;51.304;6.866;2022-09-24T09:27:36;15.25;;;11.55;;
25127;SDS011;13107;51.304;6.866;2022-09-24T09:32:00;17.08;;;11.45;;
25127;SDS011;13107;51.304;6.866;2022-09-24T09:45:01;21.60;;;11.95;;
25127;SDS011;13107;51.304;6.866;2022-09-24T09:49:15;17.55;;;11.77;;
25127;SDS011;13107;51.304;6.866;2022-09-24T09:57:22;14.32;;;12.30;;
25127;SDS011;13107;51.304;6.866;2022-09-24T10:01:29;15.20;;;11.35;;
25127;SDS011;13107;51.304;6.866;2022-09-24T10:05:33;14.23;;;10.80;;
25127;SDS011;13107;51.304;6.866;2022-09-24T10:09:35;13.48;;;10.05;;
25127;SDS011;13107;51.304;6.866;2022-09-24T10:13:38;14.93;;;9.68;;
25127;SDS011;13107;51.304;6.866;2022-09-24T10:17:40;10.35;;;8.90;;
25127;SDS011;13107;51.304;6.866;2022-09-24T10:21:43;10.85;;;8.23;;
25127;SDS011;13107;51.304;6.866;2022-09-24T10:25:54;10.93;;;8.30;;
25127;SDS011;13107;51.304;6.866;2022-09-24T10:30:00;8.90;;;6.75;;
25127;SDS011;13107;51.304;6.866;2022-09-24T10:34:24;8.18;;;6.30;;
25127;SDS011;13107;51.304;6.866;2022-09-24T10:38:27;9.82;;;6.53;;
25127;SDS011;13107;51.304;6.866;2022-09-24T10:42:30;9.60;;;6.78;;
25127;SDS011;13107;51.304;6.866;2022-09-24T11:00:07;10.27;;;7.95;;
25127;SDS011;13107;51.304;6.866;2022-09-24T11:04:28;7.82;;;7.00;;
25127;SDS011;13107;51.304;6.866;2022-09-24T11:08:56;10.20;;;8.00;;
25127;SDS011;13107;51.304;6.866;2022-09-24T11:17:37;8.98;;;7.45;;
25127;SDS011;13107;51.304;6.866;2022-09-24T11:22:08;11.10;;;8.13;;
25127;SDS011;13107;51.304;6.866;2022-09-24T11:30:49;9.43;;;8.05;;
25127;SDS011;13107;51.304;6.866;2022-09-24T11:56:45;11.90;;;8.77;;
25127;SDS011;13107;51.304;6.866;2022-09-24T12:00:52;10.93;;;7.97;;
25127;SDS011;13107;51.304;6.866;2022-09-24T12:13:25;10.68;;;6.68;;
25127;SDS011;13107;51.304;6.866;2022-09-24T12:17:37;10.57;;;6.87;;
25127;SDS011;13107;51.304;6.866;2022-09-24T12:21:45;7.68;;;6.25;;
25127;SDS011;13107;51.304;6.866;2022-09-24T12:25:49;9.57;;;6.62;;
25127;SDS011;13107;51.304;6.866;2022-09-24T12:39:01;7.90;;;6.25;;
25127;SDS011;13107;51.304;6.866;2022-09-24T12:43:11;9.95;;;6.32;;
25127;SDS011;13107;51.304;6.866;2022-09-24T12:47:26;8.32;;;6.72;;
25127;SDS011;13107;51.304;6.866;2022-09-24T12:51:35;7.70;;;6.50;;
25127;SDS011;13107;51.304;6.866;2022-09-24T12:55:43;8.18;;;6.37;;
25127;SDS011;13107;51.304;6.866;2022-09-24T13:08:35;9.15;;;6.78;;
25127;SDS011;13107;51.304;6.866;2022-09-24T13:12:41;8.52;;;6.95;;
25127;SDS011;13107;51.304;6.866;2022-09-24T13:16:48;10.15;;;7.07;;
25127;SDS011;13107;51.304;6.866;2022-09-24T13:20:57;8.45;;;6.75;;
25127;SDS011;13107;51.304;6.866;2022-09-24T13:29:22;9.73;;;7.10;;
25127;SDS011;13107;51.304;6.866;2022-09-24T13:37:34;9.25;;;7.55;;
25127;SDS011;13107;51.304;6.866;2022-09-24T13:41:49;9.52;;;7.45;;
25127;SDS011;13107;51.304;6.866;2022-09-24T13:46:06;9.20;;;7.25;;
25127;SDS011;13107;51.304;6.866;2022-09-24T13:50:16;10.10;;;7.75;;
25127;SDS011;13107;51.304;6.866;2022-09-24T13:54:30;8.20;;;6.80;;
25127;SDS011;13107;51.304;6.866;2022-09-24T13:58:37;11.12;;;8.02;;
25127;SDS011;13107;51.304;6.866;2022-09-24T14:02:39;10.13;;;7.47;;
25127;SDS011;13107;51.304;6.866;2022-09-24T14:06:50;9.43;;;7.53;;
25127;SDS011;13107;51.304;6.866;2022-09-24T14:11:04;8.77;;;7.75;;
25127;SDS011;13107;51.304;6.866;2022-09-24T14:15:13;10.10;;;8.15;;
25127;SDS011;13107;51.304;6.866;2022-09-24T14:19:16;12.68;;;8.35;;
25127;SDS011;13107;51.304;6.866;2022-09-24T14:23:18;13.52;;;8.50;;
25127;SDS011;13107;51.304;6.866;2022-09-24T14:27:24;13.90;;;9.75;;
25127;SDS011;13107;51.304;6.866;2022-09-24T14:31:28;11.75;;;9.80;;
25127;SDS011;13107;51.304;6.866;2022-09-24T14:35:33;12.70;;;9.07;;
25127;SDS011;13107;51.304;6.866;2022-09-24T14:43:44;10.77;;;8.10;;
25127;SDS011;13107;51.304;6.866;2022-09-24T14:48:00;9.98;;;8.63;;
25127;SDS011;13107;51.304;6.866;2022-09-24T14:52:21;11.18;;;8.65;;
25127;SDS011;13107;51.304;6.866;2022-09-24T14:56:32;10.25;;;8.35;;
25127;SDS011;13107;51.304;6.866;2022-09-24T15:00:36;11.30;;;7.78;;
25127;SDS011;13107;51.304;6.866;2022-09-24T15:04:48;10.43;;;8.00;;
25127;SDS011;13107;51.304;6.866;2022-09-24T15:09:03;10.70;;;8.65;;
25127;SDS011;13107;51.304;6.866;2022-09-24T15:13:23;11.10;;;8.65;;
25127;SDS011;13107;51.304;6.866;2022-09-24T15:17:29;10.68;;;8.55;;
25127;SDS011;13107;51.304;6.866;2022-09-24T15:21:33;10.63;;;8.15;;
25127;SDS011;13107;51.304;6.866;2022-09-24T15:25:34;10.60;;;7.37;;
25127;SDS011;13107;51.304;6.866;2022-09-24T15:29:36;10.27;;;7.55;;
25127;SDS011;13107;51.304;6.866;2022-09-24T15:33:38;10.85;;;8.30;;
25127;SDS011;13107;51.304;6.866;2022-09-24T15:37:40;9.48;;;6.87;;
25127;SDS011;13107;51.304;6.866;2022-09-24T15:41:42;9.50;;;7.22;;
25127;SDS011;13107;51.304;6.866;2022-09-24T15:45:44;10.77;;;7.40;;
25127;SDS011;13107;51.304;6.866;2022-09-24T15:49:45;10.02;;;7.93;;
25127;SDS011;13107;51.304;6.866;2022-09-24T15:53:47;10.55;;;7.87;;
25127;SDS011;13107;51.304;6.866;2022-09-24T15:57:50;13.50;;;8.35;;
25127;SDS011;13107;51.304;6.866;2022-09-24T16:01:52;12.63;;;8.38;;
25127;SDS011;13107;51.304;6.866;2022-09-24T16:05:58;12.23;;;8.70;;
25127;SDS011;13107;51.304;6.866;2022-09-24T16:10:00;10.45;;;9.10;;
25127;SDS011;13107;51.304;6.866;2022-09-24T16:14:02;9.20;;;8.05;;
25127;SDS011;13107;51.304;6.866;2022-09-24T16:18:04;11.07;;;7.87;;
25127;SDS011;13107;51.304;6.866;2022-09-24T16:22:06;10.25;;;8.65;;
25127;SDS011;13107;51.304;6.866;2022-09-24T16:26:08;10.52;;;7.87;;
25127;SDS011;13107;51.304;6.866;2022-09-24T16:30:10;11.18;;;9.57;;
25127;SDS011;13107;51.304;6.866;2022-09-24T16:34:12;9.20;;;8.20;;
25127;SDS011;13107;51.304;6.866;2022-09-24T16:38:14;13.55;;;10.05;;
25127;SDS011;13107;51.304;6.866;2022-09-24T16:42:22;13.60;;;10.02;;
25127;SDS011;13107;51.304;6.866;2022-09-24T16:46:26;12.93;;;10.13;;
25127;SDS011;13107;51.304;6.866;2022-09-24T16:50:28;13.38;;;8.73;;
25127;SDS011;13107;51.304;6.866;2022-09-24T16:54:29;14.70;;;9.70;;
25127;SDS011;13107;51.304;6.866;2022-09-24T16:58:33;12.63;;;10.75;;
25127;SDS011;13107;51.304;6.866;2022-09-24T17:02:35;12.63;;;9.80;;
25127;SDS011;13107;51.304;6.866;2022-09-24T17:06:37;13.68;;;9.70;;
25127;SDS011;13107;51.304;6.866;2022-09-24T17:10:47;13.60;;;11.23;;
25127;SDS011;13107;51.304;6.866;2022-09-24T17:14:57;12.30;;;10.10;;
25127;SDS011;13107;51.304;6.866;2022-09-24T17:19:02;12.93;;;10.32;;
25127;SDS011;13107;51.304;6.866;2022-09-24T17:23:03;14.38;;;10.75;;
25127;SDS011;13107;51.304;6.866;2022-09-24T17:27:06;13.60;;;10.35;;
25127;SDS011;13107;51.304;6.866;2022-09-24T17:31:08;14.50;;;11.18;;
25127;SDS011;13107;51.304;6.866;2022-09-24T17:35:11;14.32;;;12.25;;
25127;SDS011;13107;51.304;6.866;2022-09-24T17:39:14;15.93;;;13.15;;
25127;SDS011;13107;51.304;6.866;2022-09-24T17:43:16;15.80;;;13.38;;
25127;SDS011;13107;51.304;6.866;2022-09-24T17:47:18;18.65;;;14.20;;
25127;SDS011;13107;51.304;6.866;2022-09-24T17:51:24;18.85;;;14.82;;
25127;SDS011;13107;51.304;6.866;2022-09-24T17:55:25;18.35;;;13.77;;
25127;SDS011;13107;51.304;6.866;2022-09-24T17:59:27;17.77;;;13.45;;
25127;SDS011;13107;51.304;6.866;2022-09-24T18:03:29;13.30;;;11.90;;
25127;SDS011;13107;51.304;6.866;2022-09-24T18:07:30;15.55;;;12.02;;
25127;SDS011;13107;51.304;6.866;2022-09-24T18:11:36;13.90;;;11.35;;
25127;SDS011;13107;51.304;6.866;2022-09-24T18:15:48;12.20;;;10.88;;
25127;SDS011;13107;51.304;6.866;2022-09-24T18:19:50;14.32;;;11.60;;
25127;SDS011;13107;51.304;6.866;2022-09-24T18:23:52;15.10;;;10.88;;
25127;SDS011;13107;51.304;6.866;2022-09-24T18:27:55;13.75;;;11.27;;
25127;SDS011;13107;51.304;6.866;2022-09-24T18:32:01;12.10;;;10.32;;
25127;SDS011;13107;51.304;6.866;2022-09-24T18:36:03;15.90;;;11.27;;
25127;SDS011;13107;51.304;6.866;2022-09-24T18:40:07;13.82;;;10.70;;
25127;SDS011;13107;51.304;6.866;2022-09-24T18:44:10;14.77;;;10.80;;
25127;SDS011;13107;51.304;6.866;2022-09-24T18:48:12;15.05;;;11.32;;
25127;SDS011;13107;51.304;6.866;2022-09-24T18:52:13;13.50;;;10.93;;
25127;SDS011;13107;51.304;6.866;2022-09-24T18:56:15;14.87;;;10.73;;
25127;SDS011;13107;51.304;6.866;2022-09-24T19:00:17;15.05;;;10.57;;
25127;SDS011;13107;51.304;6.866;2022-09-24T19:04:37;13.25;;;11.10;;
25127;SDS011;13107;51.304;6.866;2022-09-24T19:08:39;15.27;;;10.80;;
25127;SDS011;13107;51.304;6.866;2022-09-24T19:12:41;12.02;;;9.85;;
25127;SDS011;13107;51.304;6.866;2022-09-24T19:16:43;15.65;;;10.70;;
25127;SDS011;13107;51.304;6.866;2022-09-24T19:20:46;13.25;;;10.45;;
25127;SDS011;13107;51.304;6.866;2022-09-24T19:24:50;12.77;;;10.18;;
25127;SDS011;13107;51.304;6.866;2022-09-24T19:28:52;16.50;;;10.27;;
25127;SDS011;13107;51.304;6.866;2022-09-24T19:32:54;16.17;;;10.88;;
25127;SDS011;13107;51.304;6.866;2022-09-24T19:36:57;12.75;;;10.27;;
25127;SDS011;13107;51.304;6.866;2022-09-24T19:41:13;14.77;;;11.35;;
25127;SDS011;13107;51.304;6.866;2022-09-24T19:45:19;14.20;;;11.52;;
25127;SDS011;13107;51.304;6.866;2022-09-24T19:49:21;13.95;;;10.25;;
25127;SDS011;13107;51.304;6.866;2022-09-24T19:53:23;12.60;;;10.02;;
25127;SDS011;13107;51.304;6.866;2022-09-24T19:57:25;13.52;;;10.90;;
25127;SDS011;13107;51.304;6.866;2022-09-24T20:01:28;15.60;;;10.48;;
25127;SDS011;13107;51.304;6.866;2022-09-24T20:05:32;16.12;;;11.00;;
25127;SDS011;13107;51.304;6.866;2022-09-24T20:09:34;13.80;;;10.23;;
25127;SDS011;13107;51.304;6.866;2022-09-24T20:13:35;13.95;;;10.18;;
25127;SDS011;13107;51.304;6.866;2022-09-24T20:17:39;14.68;;;10.05;;
25127;SDS011;13107;51.304;6.866;2022-09-24T20:21:40;12.80;;;10.05;;
25127;SDS011;13107;51.304;6.866;2022-09-24T20:25:47;14.32;;;10.30;;
25127;SDS011;13107;51.304;6.866;2022-09-24T20:30:08;12.18;;;10.27;;
25127;SDS011;13107;51.304;6.866;2022-09-24T20:34:10;14.20;;;10.10;;
25127;SDS011;13107;51.304;6.866;2022-09-24T20:38:12;11.43;;;10.18;;
25127;SDS011;13107;51.304;6.866;2022-09-24T20:42:14;15.27;;;12.98;;
25127;SDS011;13107;51.304;6.866;2022-09-24T20:46:19;16.60;;;12.32;;
25127;SDS011;13107;51.304;6.866;2022-09-24T20:50:24;17.05;;;12.75;;
25127;SDS011;13107;51.304;6.866;2022-09-24T20:54:25;19.83;;;14.70;;
25127;SDS011;13107;51.304;6.866;2022-09-24T20:58:28;17.27;;;14.32;;
25127;SDS011;13107;51.304;6.866;2022-09-24T21:02:30;20.92;;;16.50;;
25127;SDS011;13107;51.304;6.866;2022-09-24T21:06:36;21.40;;;16.92;;
25127;SDS011;13107;51.304;6.866;2022-09-24T21:10:38;19.20;;;16.50;;
25127;SDS011;13107;51.304;6.866;2022-09-24T21:14:40;21.75;;;16.85;;
25127;SDS011;13107;51.304;6.866;2022-09-24T21:18:41;22.40;;;16.98;;
25127;SDS011;13107;51.304;6.866;2022-09-24T21:22:46;19.98;;;17.73;;
25127;SDS011;13107;51.304;6.866;2022-09-24T21:26:49;24.05;;;19.27;;
25127;SDS011;13107;51.304;6.866;2022-09-24T21:30:56;23.80;;;19.50;;
25127;SDS011;13107;51.304;6.866;2022-09-24T21:35:03;23.65;;;19.98;;
25127;SDS011;13107;51.304;6.866;2022-09-24T21:39:06;23.98;;;19.87;;
25127;SDS011;13107;51.304;6.866;2022-09-24T21:43:13;26.52;;;20.23;;
25127;SDS011;13107;51.304;6.866;2022-09-24T21:47:14;25.85;;;20.75;;
25127;SDS011;13107;51.304;6.866;2022-09-24T21:51:16;24.73;;;20.62;;
25127;SDS011;13107;51.304;6.866;2022-09-24T21:55:22;24.10;;;20.60;;
25127;SDS011;13107;51.304;6.866;2022-09-24T21:59:24;23.45;;;19.60;;
25127;SDS011;13107;51.304;6.866;2022-09-24T22:03:44;25.05;;;19.85;;
25127;SDS011;13107;51.304;6.866;2022-09-24T22:07:46;22.58;;;18.48;;
25127;SDS011;13107;51.304;6.866;2022-09-24T22:11:48;20.42;;;17.98;;
25127;SDS011;13107;51.304;6.866;2022-09-24T22:15:51;20.77;;;18.52;;
25127;SDS011;13107;51.304;6.866;2022-09-24T22:19:53;22.70;;;19.58;;
25127;SDS011;13107;51.304;6.866;2022-09-24T22:23:54;22.05;;;18.00;;
25127;SDS011;13107;51.304;6.866;2022-09-24T22:27:56;23.02;;;19.67;;
25127;SDS011;13107;51.304;6.866;2022-09-24T22:31:58;22.80;;;19.23;;
25127;SDS011;13107;51.304;6.866;2022-09-24T22:35:59;25.40;;;20.12;;
25127;SDS011;13107;51.304;6.866;2022-09-24T22:40:02;22.67;;;20.25;;
25127;SDS011;13107;51.304;6.866;2022-09-24T22:44:05;27.60;;;20.35;;
25127;SDS011;13107;51.304;6.866;2022-09-24T22:48:07;24.35;;;19.50;;
25127;SDS011;13107;51.304;6.866;2022-09-24T22:52:09;25.37;;;18.70;;
25127;SDS011;13107;51.304;6.866;2022-09-24T22:56:15;23.65;;;18.90;;
25127;SDS011;13107;51.304;6.866;2022-09-24T23:00:19;22.37;;;18.90;;
25127;SDS011;13107;51.304;6.866;2022-09-24T23:04:21;22.73;;;18.35;;
25127;SDS011;13107;51.304;6.866;2022-09-24T23:08:22;21.60;;;18.00;;
25127;SDS011;13107;51.304;6.866;2022-09-24T23:12:24;21.42;;;17.40;;
25127;SDS011;13107;51.304;6.866;2022-09-24T23:16:34;20.43;;;16.23;;
25127;SDS011;13107;51.304;6.866;2022-09-24T23:20:37;22.10;;;16.37;;
25127;SDS011;13107;51.304;6.866;2022-09-24T23:24:38;18.12;;;14.35;;
25127;SDS011;13107;51.304;6.866;2022-09-24T23:28:40;24.85;;;14.68;;
25127;SDS011;13107;51.304;6.866;2022-09-24T23:32:42;19.55;;;13.77;;
25127;SDS011;13107;51.304;6.866;2022-09-24T23:36:44;14.55;;;12.27;;
25127;SDS011;13107;51.304;6.866;2022-09-24T23:40:46;17.85;;;12.05;;
25127;SDS011;13107;51.304;6.866;2022-09-24T23:44:50;17.87;;;13.40;;
25127;SDS011;13107;51.304;6.866;2022-09-24T23:48:52;21.75;;;12.52;;
25127;SDS011;13107;51.304;6.866;2022-09-24T23:52:54;19.60;;;12.55;;
25127;SDS011;13107;51.304;6.866;2022-09-24T23:56:56;18.15;;;12.27;;
